sensor_id;sensor_type;location;lat;lon;timestamp;P1;durP1;ratioP1;P2;durP2;ratioP2
74503;SDS011;62988;55.776;37.544;2023-02-11T00:00:05;9.10;;;3.73;;
74503;SDS011;62988;55.776;37.544;2023-02-11T00:02:31;13.52;;;5.60;;
74503;SDS011;62988;55.776;37.544;2023-02-11T00:04:57;7.05;;;3.22;;
74503;SDS011;62988;55.776;37.544;2023-02-11T00:07:22;12.05;;;5.00;;
74503;SDS011;62988;55.776;37.544;2023-02-11T00:09:48;4.60;;;1.73;;
74503;SDS011;62988;55.776;37.544;2023-02-11T00:12:13;10.88;;;4.85;;
74503;SDS011;62988;55.776;37.544;2023-02-11T00:14:39;9.38;;;3.28;;
74503;SDS011;62988;55.776;37.544;2023-02-11T00:17:05;12.87;;;5.07;;
74503;SDS011;62988;55.776;37.544;2023-02-11T00:19:30;10.00;;;4.03;;
74503;SDS011;62988;55.776;37.544;2023-02-11T00:21:55;11.10;;;3.93;;
74503;SDS011;62988;55.776;37.544;2023-02-11T00:24:21;13.23;;;4.93;;
74503;SDS011;62988;55.776;37.544;2023-02-11T00:26:46;12.30;;;4.17;;
74503;SDS011;62988;55.776;37.544;2023-02-11T00:29:11;15.73;;;4.60;;
74503;SDS011;62988;55.776;37.544;2023-02-11T00:31:37;12.50;;;4.30;;
74503;SDS011;62988;55.776;37.544;2023-02-11T00:34:02;18.35;;;5.07;;
74503;SDS011;62988;55.776;37.544;2023-02-11T00:36:27;10.90;;;3.97;;
74503;SDS011;62988;55.776;37.544;2023-02-11T00:38:53;12.38;;;3.30;;
74503;SDS011;62988;55.776;37.544;2023-02-11T00:41:19;12.52;;;4.13;;
74503;SDS011;62988;55.776;37.544;2023-02-11T00:43:45;12.95;;;4.80;;
74503;SDS011;62988;55.776;37.544;2023-02-11T00:46:11;13.40;;;4.90;;
74503;SDS011;62988;55.776;37.544;2023-02-11T00:48:36;15.10;;;5.43;;
74503;SDS011;62988;55.776;37.544;2023-02-11T00:51:01;15.80;;;5.27;;
74503;SDS011;62988;55.776;37.544;2023-02-11T00:53:28;18.25;;;4.95;;
74503;SDS011;62988;55.776;37.544;2023-02-11T00:55:53;11.63;;;3.78;;
74503;SDS011;62988;55.776;37.544;2023-02-11T00:58:19;12.13;;;3.90;;
74503;SDS011;62988;55.776;37.544;2023-02-11T01:00:44;8.05;;;3.28;;
74503;SDS011;62988;55.776;37.544;2023-02-11T01:03:09;14.90;;;4.83;;
74503;SDS011;62988;55.776;37.544;2023-02-11T01:05:35;11.93;;;4.07;;
74503;SDS011;62988;55.776;37.544;2023-02-11T01:08:00;15.07;;;4.53;;
74503;SDS011;62988;55.776;37.544;2023-02-11T01:10:25;8.75;;;3.30;;
74503;SDS011;62988;55.776;37.544;2023-02-11T01:12:52;14.38;;;4.88;;
74503;SDS011;62988;55.776;37.544;2023-02-11T01:15:18;10.43;;;3.88;;
74503;SDS011;62988;55.776;37.544;2023-02-11T01:17:43;9.45;;;3.83;;
74503;SDS011;62988;55.776;37.544;2023-02-11T01:20:17;13.43;;;3.97;;
74503;SDS011;62988;55.776;37.544;2023-02-11T01:22:43;8.23;;;3.05;;
74503;SDS011;62988;55.776;37.544;2023-02-11T01:25:08;9.40;;;4.07;;
74503;SDS011;62988;55.776;37.544;2023-02-11T01:27:34;14.40;;;4.30;;
74503;SDS011;62988;55.776;37.544;2023-02-11T01:29:59;10.98;;;3.55;;
74503;SDS011;62988;55.776;37.544;2023-02-11T01:32:25;16.60;;;3.83;;
74503;SDS011;62988;55.776;37.544;2023-02-11T01:34:50;10.52;;;3.47;;
74503;SDS011;62988;55.776;37.544;2023-02-11T01:37:16;11.30;;;3.20;;
74503;SDS011;62988;55.776;37.544;2023-02-11T01:39:41;16.27;;;3.33;;
74503;SDS011;62988;55.776;37.544;2023-02-11T01:42:08;5.63;;;1.97;;
74503;SDS011;62988;55.776;37.544;2023-02-11T01:44:35;8.25;;;3.20;;
74503;SDS011;62988;55.776;37.544;2023-02-11T01:47:01;11.98;;;3.30;;
74503;SDS011;62988;55.776;37.544;2023-02-11T01:49:35;11.73;;;4.05;;
74503;SDS011;62988;55.776;37.544;2023-02-11T01:52:03;8.00;;;2.88;;
74503;SDS011;62988;55.776;37.544;2023-02-11T01:54:33;9.63;;;3.40;;
74503;SDS011;62988;55.776;37.544;2023-02-11T01:57:19;10.75;;;3.08;;
74503;SDS011;62988;55.776;37.544;2023-02-11T02:00:10;6.47;;;2.28;;
74503;SDS011;62988;55.776;37.544;2023-02-11T02:05:17;12.73;;;3.22;;
74503;SDS011;62988;55.776;37.544;2023-02-11T02:10:16;6.85;;;2.90;;
74503;SDS011;62988;55.776;37.544;2023-02-11T02:12:43;8.70;;;3.22;;
74503;SDS011;62988;55.776;37.544;2023-02-11T02:17:46;6.90;;;2.60;;
74503;SDS011;62988;55.776;37.544;2023-02-11T02:22:54;5.38;;;2.03;;
74503;SDS011;62988;55.776;37.544;2023-02-11T02:27:52;5.20;;;1.83;;
74503;SDS011;62988;55.776;37.544;2023-02-11T02:35:49;4.45;;;1.70;;
74503;SDS011;62988;55.776;37.544;2023-02-11T02:40:44;8.30;;;2.43;;
74503;SDS011;62988;55.776;37.544;2023-02-11T02:43:10;4.75;;;2.28;;
74503;SDS011;62988;55.776;37.544;2023-02-11T02:45:37;5.63;;;1.70;;
74503;SDS011;62988;55.776;37.544;2023-02-11T02:48:02;7.80;;;2.03;;
74503;SDS011;62988;55.776;37.544;2023-02-11T02:50:29;13.55;;;2.90;;
74503;SDS011;62988;55.776;37.544;2023-02-11T02:53:11;6.55;;;2.85;;
74503;SDS011;62988;55.776;37.544;2023-02-11T03:06:09;7.15;;;2.40;;
74503;SDS011;62988;55.776;37.544;2023-02-11T03:08:37;5.25;;;2.00;;
74503;SDS011;62988;55.776;37.544;2023-02-11T03:11:03;3.95;;;1.77;;
74503;SDS011;62988;55.776;37.544;2023-02-11T03:13:30;6.28;;;1.98;;
74503;SDS011;62988;55.776;37.544;2023-02-11T03:15:57;9.18;;;3.00;;
74503;SDS011;62988;55.776;37.544;2023-02-11T03:18:25;5.90;;;2.00;;
74503;SDS011;62988;55.776;37.544;2023-02-11T03:20:51;9.43;;;3.00;;
74503;SDS011;62988;55.776;37.544;2023-02-11T03:23:37;6.75;;;2.05;;
74503;SDS011;62988;55.776;37.544;2023-02-11T03:26:07;7.32;;;2.30;;
74503;SDS011;62988;55.776;37.544;2023-02-11T03:28:38;4.82;;;1.40;;
74503;SDS011;62988;55.776;37.544;2023-02-11T03:31:17;7.15;;;2.22;;
74503;SDS011;62988;55.776;37.544;2023-02-11T03:33:51;6.50;;;2.17;;
74503;SDS011;62988;55.776;37.544;2023-02-11T03:36:19;6.47;;;2.10;;
74503;SDS011;62988;55.776;37.544;2023-02-11T03:38:47;3.40;;;1.40;;
74503;SDS011;62988;55.776;37.544;2023-02-11T03:41:14;3.72;;;1.10;;
74503;SDS011;62988;55.776;37.544;2023-02-11T03:43:41;5.57;;;1.63;;
74503;SDS011;62988;55.776;37.544;2023-02-11T03:46:08;6.65;;;1.60;;
74503;SDS011;62988;55.776;37.544;2023-02-11T03:48:37;6.82;;;1.65;;
74503;SDS011;62988;55.776;37.544;2023-02-11T03:51:04;6.82;;;2.10;;
74503;SDS011;62988;55.776;37.544;2023-02-11T03:53:30;5.70;;;2.00;;
74503;SDS011;62988;55.776;37.544;2023-02-11T03:55:56;5.07;;;1.43;;
74503;SDS011;62988;55.776;37.544;2023-02-11T03:58:24;5.32;;;1.17;;
74503;SDS011;62988;55.776;37.544;2023-02-11T04:00:49;3.95;;;1.17;;
74503;SDS011;62988;55.776;37.544;2023-02-11T04:03:15;5.10;;;1.50;;
74503;SDS011;62988;55.776;37.544;2023-02-11T04:05:40;5.85;;;1.70;;
74503;SDS011;62988;55.776;37.544;2023-02-11T04:08:06;8.35;;;1.77;;
74503;SDS011;62988;55.776;37.544;2023-02-11T04:10:31;5.40;;;1.33;;
74503;SDS011;62988;55.776;37.544;2023-02-11T04:12:56;5.87;;;1.43;;
74503;SDS011;62988;55.776;37.544;2023-02-11T04:15:22;4.40;;;1.30;;
74503;SDS011;62988;55.776;37.544;2023-02-11T04:17:47;5.53;;;1.38;;
74503;SDS011;62988;55.776;37.544;2023-02-11T04:20:13;4.72;;;1.48;;
74503;SDS011;62988;55.776;37.544;2023-02-11T04:22:38;5.10;;;1.60;;
74503;SDS011;62988;55.776;37.544;2023-02-11T04:25:04;6.80;;;1.83;;
74503;SDS011;62988;55.776;37.544;2023-02-11T04:27:30;7.38;;;1.85;;
74503;SDS011;62988;55.776;37.544;2023-02-11T04:29:55;7.30;;;2.10;;
74503;SDS011;62988;55.776;37.544;2023-02-11T04:32:20;6.73;;;1.53;;
74503;SDS011;62988;55.776;37.544;2023-02-11T04:34:46;5.63;;;1.47;;
74503;SDS011;62988;55.776;37.544;2023-02-11T04:37:12;7.90;;;2.03;;
74503;SDS011;62988;55.776;37.544;2023-02-11T04:39:37;5.00;;;1.57;;
74503;SDS011;62988;55.776;37.544;2023-02-11T04:42:03;6.07;;;1.70;;
74503;SDS011;62988;55.776;37.544;2023-02-11T04:44:28;9.18;;;1.70;;
74503;SDS011;62988;55.776;37.544;2023-02-11T04:46:53;4.93;;;1.67;;
74503;SDS011;62988;55.776;37.544;2023-02-11T04:49:19;5.25;;;1.48;;
74503;SDS011;62988;55.776;37.544;2023-02-11T04:51:44;7.73;;;2.10;;
74503;SDS011;62988;55.776;37.544;2023-02-11T04:54:10;6.53;;;1.60;;
74503;SDS011;62988;55.776;37.544;2023-02-11T04:56:35;9.38;;;1.45;;
74503;SDS011;62988;55.776;37.544;2023-02-11T04:59:01;4.68;;;1.20;;
74503;SDS011;62988;55.776;37.544;2023-02-11T05:01:26;7.80;;;2.42;;
74503;SDS011;62988;55.776;37.544;2023-02-11T05:03:52;3.35;;;1.63;;
74503;SDS011;62988;55.776;37.544;2023-02-11T05:06:17;4.93;;;1.03;;
74503;SDS011;62988;55.776;37.544;2023-02-11T05:08:42;7.30;;;1.90;;
74503;SDS011;62988;55.776;37.544;2023-02-11T05:11:11;5.43;;;1.60;;
74503;SDS011;62988;55.776;37.544;2023-02-11T05:13:38;8.50;;;1.70;;
74503;SDS011;62988;55.776;37.544;2023-02-11T05:16:03;3.40;;;1.33;;
74503;SDS011;62988;55.776;37.544;2023-02-11T05:18:29;5.65;;;2.13;;
74503;SDS011;62988;55.776;37.544;2023-02-11T05:20:54;3.23;;;1.10;;
74503;SDS011;62988;55.776;37.544;2023-02-11T05:23:20;7.50;;;1.80;;
74503;SDS011;62988;55.776;37.544;2023-02-11T05:25:45;4.38;;;1.27;;
74503;SDS011;62988;55.776;37.544;2023-02-11T05:28:10;5.57;;;1.70;;
74503;SDS011;62988;55.776;37.544;2023-02-11T05:30:36;5.07;;;1.43;;
74503;SDS011;62988;55.776;37.544;2023-02-11T05:33:01;4.47;;;1.60;;
74503;SDS011;62988;55.776;37.544;2023-02-11T05:35:26;3.37;;;1.17;;
74503;SDS011;62988;55.776;37.544;2023-02-11T05:37:52;4.30;;;1.30;;
74503;SDS011;62988;55.776;37.544;2023-02-11T05:40:17;3.67;;;1.38;;
74503;SDS011;62988;55.776;37.544;2023-02-11T05:42:42;4.40;;;1.27;;
74503;SDS011;62988;55.776;37.544;2023-02-11T05:45:08;7.28;;;1.50;;
74503;SDS011;62988;55.776;37.544;2023-02-11T05:47:33;11.13;;;1.98;;
74503;SDS011;62988;55.776;37.544;2023-02-11T05:49:59;3.73;;;1.63;;
74503;SDS011;62988;55.776;37.544;2023-02-11T05:52:24;3.90;;;1.30;;
74503;SDS011;62988;55.776;37.544;2023-02-11T05:54:49;6.60;;;1.42;;
74503;SDS011;62988;55.776;37.544;2023-02-11T05:57:15;4.90;;;1.27;;
74503;SDS011;62988;55.776;37.544;2023-02-11T05:59:40;3.50;;;1.50;;
74503;SDS011;62988;55.776;37.544;2023-02-11T06:02:06;5.78;;;1.30;;
74503;SDS011;62988;55.776;37.544;2023-02-11T06:04:35;5.65;;;1.52;;
74503;SDS011;62988;55.776;37.544;2023-02-11T06:07:00;6.65;;;1.35;;
74503;SDS011;62988;55.776;37.544;2023-02-11T06:09:25;3.97;;;1.47;;
74503;SDS011;62988;55.776;37.544;2023-02-11T06:11:51;7.57;;;1.40;;
74503;SDS011;62988;55.776;37.544;2023-02-11T06:14:16;8.38;;;2.33;;
74503;SDS011;62988;55.776;37.544;2023-02-11T06:16:42;6.57;;;1.03;;
74503;SDS011;62988;55.776;37.544;2023-02-11T06:19:07;6.90;;;2.07;;
74503;SDS011;62988;55.776;37.544;2023-02-11T06:21:33;5.82;;;1.85;;
74503;SDS011;62988;55.776;37.544;2023-02-11T06:23:58;7.30;;;2.00;;
74503;SDS011;62988;55.776;37.544;2023-02-11T06:26:24;5.17;;;1.60;;
74503;SDS011;62988;55.776;37.544;2023-02-11T06:28:49;5.85;;;1.60;;
74503;SDS011;62988;55.776;37.544;2023-02-11T06:31:15;4.60;;;1.40;;
74503;SDS011;62988;55.776;37.544;2023-02-11T06:33:40;17.02;;;2.13;;
74503;SDS011;62988;55.776;37.544;2023-02-11T06:36:16;4.40;;;1.63;;
74503;SDS011;62988;55.776;37.544;2023-02-11T06:38:42;4.32;;;1.60;;
74503;SDS011;62988;55.776;37.544;2023-02-11T06:41:11;8.68;;;1.95;;
74503;SDS011;62988;55.776;37.544;2023-02-11T06:43:36;2.53;;;1.10;;
74503;SDS011;62988;55.776;37.544;2023-02-11T06:46:02;10.07;;;2.30;;
74503;SDS011;62988;55.776;37.544;2023-02-11T06:48:27;13.88;;;2.72;;
74503;SDS011;62988;55.776;37.544;2023-02-11T06:50:53;4.00;;;1.40;;
74503;SDS011;62988;55.776;37.544;2023-02-11T06:53:18;4.73;;;1.33;;
74503;SDS011;62988;55.776;37.544;2023-02-11T06:55:43;7.50;;;2.05;;
74503;SDS011;62988;55.776;37.544;2023-02-11T06:58:09;6.97;;;1.98;;
74503;SDS011;62988;55.776;37.544;2023-02-11T07:00:35;8.40;;;2.33;;
74503;SDS011;62988;55.776;37.544;2023-02-11T07:03:00;6.28;;;1.92;;
74503;SDS011;62988;55.776;37.544;2023-02-11T07:05:26;4.10;;;2.30;;
74503;SDS011;62988;55.776;37.544;2023-02-11T07:07:51;3.58;;;0.80;;
74503;SDS011;62988;55.776;37.544;2023-02-11T07:10:16;5.53;;;2.10;;
74503;SDS011;62988;55.776;37.544;2023-02-11T07:12:44;6.33;;;1.87;;
74503;SDS011;62988;55.776;37.544;2023-02-11T07:15:12;10.07;;;2.50;;
74503;SDS011;62988;55.776;37.544;2023-02-11T07:17:46;7.78;;;2.20;;
74503;SDS011;62988;55.776;37.544;2023-02-11T07:20:12;9.97;;;2.40;;
74503;SDS011;62988;55.776;37.544;2023-02-11T07:22:39;14.98;;;2.83;;
74503;SDS011;62988;55.776;37.544;2023-02-11T07:25:04;8.18;;;2.60;;
74503;SDS011;62988;55.776;37.544;2023-02-11T07:27:29;7.32;;;2.25;;
74503;SDS011;62988;55.776;37.544;2023-02-11T07:29:55;7.10;;;2.53;;
74503;SDS011;62988;55.776;37.544;2023-02-11T07:32:20;6.23;;;2.23;;
74503;SDS011;62988;55.776;37.544;2023-02-11T07:34:46;5.90;;;2.40;;
74503;SDS011;62988;55.776;37.544;2023-02-11T07:37:12;8.38;;;3.05;;
74503;SDS011;62988;55.776;37.544;2023-02-11T07:39:38;10.15;;;2.88;;
74503;SDS011;62988;55.776;37.544;2023-02-11T07:42:03;7.07;;;2.50;;
74503;SDS011;62988;55.776;37.544;2023-02-11T07:44:28;7.30;;;2.45;;
74503;SDS011;62988;55.776;37.544;2023-02-11T07:46:54;8.13;;;2.72;;
74503;SDS011;62988;55.776;37.544;2023-02-11T07:49:22;13.00;;;2.90;;
74503;SDS011;62988;55.776;37.544;2023-02-11T07:51:47;7.47;;;2.90;;
74503;SDS011;62988;55.776;37.544;2023-02-11T07:54:15;10.75;;;2.85;;
74503;SDS011;62988;55.776;37.544;2023-02-11T07:56:40;6.43;;;2.63;;
74503;SDS011;62988;55.776;37.544;2023-02-11T07:59:05;10.50;;;2.38;;
74503;SDS011;62988;55.776;37.544;2023-02-11T08:01:33;9.60;;;3.00;;
74503;SDS011;62988;55.776;37.544;2023-02-11T08:03:59;14.52;;;3.33;;
74503;SDS011;62988;55.776;37.544;2023-02-11T08:06:28;8.98;;;2.97;;
74503;SDS011;62988;55.776;37.544;2023-02-11T08:08:57;7.60;;;2.60;;
74503;SDS011;62988;55.776;37.544;2023-02-11T08:11:23;10.55;;;3.58;;
74503;SDS011;62988;55.776;37.544;2023-02-11T08:13:49;10.30;;;3.10;;
74503;SDS011;62988;55.776;37.544;2023-02-11T08:16:28;13.77;;;4.25;;
74503;SDS011;62988;55.776;37.544;2023-02-11T08:18:57;7.30;;;3.30;;
74503;SDS011;62988;55.776;37.544;2023-02-11T08:21:22;10.15;;;3.65;;
74503;SDS011;62988;55.776;37.544;2023-02-11T08:23:48;13.70;;;4.53;;
74503;SDS011;62988;55.776;37.544;2023-02-11T08:26:15;10.23;;;3.40;;
74503;SDS011;62988;55.776;37.544;2023-02-11T08:28:41;12.52;;;3.30;;
74503;SDS011;62988;55.776;37.544;2023-02-11T08:31:08;6.28;;;2.60;;
74503;SDS011;62988;55.776;37.544;2023-02-11T08:33:34;6.88;;;3.05;;
74503;SDS011;62988;55.776;37.544;2023-02-11T08:35:59;10.93;;;3.97;;
74503;SDS011;62988;55.776;37.544;2023-02-11T08:38:25;7.00;;;3.38;;
74503;SDS011;62988;55.776;37.544;2023-02-11T08:40:51;9.00;;;3.10;;
74503;SDS011;62988;55.776;37.544;2023-02-11T08:43:19;9.23;;;3.10;;
74503;SDS011;62988;55.776;37.544;2023-02-11T08:45:47;7.97;;;3.30;;
74503;SDS011;62988;55.776;37.544;2023-02-11T08:48:12;8.90;;;3.47;;
74503;SDS011;62988;55.776;37.544;2023-02-11T08:50:38;11.33;;;3.07;;
74503;SDS011;62988;55.776;37.544;2023-02-11T08:53:03;9.07;;;3.03;;
74503;SDS011;62988;55.776;37.544;2023-02-11T08:55:29;10.03;;;3.30;;
74503;SDS011;62988;55.776;37.544;2023-02-11T08:57:54;8.43;;;3.33;;
74503;SDS011;62988;55.776;37.544;2023-02-11T09:00:19;11.47;;;3.47;;
74503;SDS011;62988;55.776;37.544;2023-02-11T09:02:45;12.07;;;4.47;;
74503;SDS011;62988;55.776;37.544;2023-02-11T09:05:10;11.77;;;3.53;;
74503;SDS011;62988;55.776;37.544;2023-02-11T09:07:36;8.50;;;3.75;;
74503;SDS011;62988;55.776;37.544;2023-02-11T09:10:01;7.13;;;2.67;;
74503;SDS011;62988;55.776;37.544;2023-02-11T09:12:26;13.05;;;4.18;;
74503;SDS011;62988;55.776;37.544;2023-02-11T09:14:52;19.97;;;3.20;;
74503;SDS011;62988;55.776;37.544;2023-02-11T09:17:17;9.30;;;3.60;;
74503;SDS011;62988;55.776;37.544;2023-02-11T09:19:42;13.20;;;3.73;;
74503;SDS011;62988;55.776;37.544;2023-02-11T09:22:08;9.03;;;3.43;;
74503;SDS011;62988;55.776;37.544;2023-02-11T09:24:33;9.23;;;3.70;;
74503;SDS011;62988;55.776;37.544;2023-02-11T09:26:59;5.30;;;2.33;;
74503;SDS011;62988;55.776;37.544;2023-02-11T09:29:24;11.18;;;2.67;;
74503;SDS011;62988;55.776;37.544;2023-02-11T09:31:49;5.22;;;2.20;;
74503;SDS011;62988;55.776;37.544;2023-02-11T09:34:16;9.48;;;2.92;;
74503;SDS011;62988;55.776;37.544;2023-02-11T09:36:42;10.35;;;3.15;;
74503;SDS011;62988;55.776;37.544;2023-02-11T09:39:12;5.90;;;2.13;;
74503;SDS011;62988;55.776;37.544;2023-02-11T09:44:07;10.75;;;3.90;;
74503;SDS011;62988;55.776;37.544;2023-02-11T09:46:39;16.77;;;3.65;;
74503;SDS011;62988;55.776;37.544;2023-02-11T09:49:05;6.82;;;2.15;;
74503;SDS011;62988;55.776;37.544;2023-02-11T09:51:37;9.88;;;3.45;;
74503;SDS011;62988;55.776;37.544;2023-02-11T09:54:11;6.15;;;2.65;;
74503;SDS011;62988;55.776;37.544;2023-02-11T09:56:37;10.40;;;3.67;;
74503;SDS011;62988;55.776;37.544;2023-02-11T09:59:03;11.63;;;3.10;;
74503;SDS011;62988;55.776;37.544;2023-02-11T10:06:35;16.30;;;4.37;;
74503;SDS011;62988;55.776;37.544;2023-02-11T10:17:34;8.27;;;2.67;;
74503;SDS011;62988;55.776;37.544;2023-02-11T10:22:28;6.50;;;2.53;;
74503;SDS011;62988;55.776;37.544;2023-02-11T10:24:56;9.95;;;2.47;;
74503;SDS011;62988;55.776;37.544;2023-02-11T10:27:30;10.50;;;3.50;;
74503;SDS011;62988;55.776;37.544;2023-02-11T10:29:58;6.30;;;2.58;;
74503;SDS011;62988;55.776;37.544;2023-02-11T10:34:52;9.10;;;3.37;;
74503;SDS011;62988;55.776;37.544;2023-02-11T10:37:20;9.65;;;2.97;;
74503;SDS011;62988;55.776;37.544;2023-02-11T10:39:45;12.97;;;3.87;;
74503;SDS011;62988;55.776;37.544;2023-02-11T10:42:11;10.87;;;3.53;;
74503;SDS011;62988;55.776;37.544;2023-02-11T10:44:38;6.10;;;2.30;;
74503;SDS011;62988;55.776;37.544;2023-02-11T10:47:07;10.90;;;3.15;;
74503;SDS011;62988;55.776;37.544;2023-02-11T10:49:36;9.60;;;3.65;;
74503;SDS011;62988;55.776;37.544;2023-02-11T10:54:36;5.82;;;2.20;;
74503;SDS011;62988;55.776;37.544;2023-02-11T10:57:01;7.27;;;2.37;;
74503;SDS011;62988;55.776;37.544;2023-02-11T10:59:28;7.70;;;3.17;;
74503;SDS011;62988;55.776;37.544;2023-02-11T11:02:03;11.23;;;3.58;;
74503;SDS011;62988;55.776;37.544;2023-02-11T11:07:09;12.38;;;3.00;;
74503;SDS011;62988;55.776;37.544;2023-02-11T11:09:43;10.18;;;3.25;;
74503;SDS011;62988;55.776;37.544;2023-02-11T11:12:26;13.30;;;2.88;;
74503;SDS011;62988;55.776;37.544;2023-02-11T11:17:17;11.43;;;3.50;;
74503;SDS011;62988;55.776;37.544;2023-02-11T11:19:43;14.80;;;4.60;;
74503;SDS011;62988;55.776;37.544;2023-02-11T11:22:11;11.80;;;3.38;;
74503;SDS011;62988;55.776;37.544;2023-02-11T11:24:43;9.85;;;3.90;;
74503;SDS011;62988;55.776;37.544;2023-02-11T11:27:16;9.82;;;3.67;;
74503;SDS011;62988;55.776;37.544;2023-02-11T11:29:42;14.55;;;4.00;;
74503;SDS011;62988;55.776;37.544;2023-02-11T11:32:12;13.85;;;3.45;;
74503;SDS011;62988;55.776;37.544;2023-02-11T11:34:40;9.25;;;4.32;;
74503;SDS011;62988;55.776;37.544;2023-02-11T11:37:13;12.60;;;4.70;;
74503;SDS011;62988;55.776;37.544;2023-02-11T11:39:39;10.68;;;4.25;;
74503;SDS011;62988;55.776;37.544;2023-02-11T11:42:19;11.07;;;4.53;;
74503;SDS011;62988;55.776;37.544;2023-02-11T11:44:45;9.93;;;3.80;;
74503;SDS011;62988;55.776;37.544;2023-02-11T11:47:22;11.32;;;4.30;;
74503;SDS011;62988;55.776;37.544;2023-02-11T11:55:17;7.03;;;2.97;;
74503;SDS011;62988;55.776;37.544;2023-02-11T11:57:43;7.45;;;3.78;;
74503;SDS011;62988;55.776;37.544;2023-02-11T12:00:13;11.25;;;3.80;;
74503;SDS011;62988;55.776;37.544;2023-02-11T12:15:28;4.97;;;2.17;;
74503;SDS011;62988;55.776;37.544;2023-02-11T12:22:59;12.25;;;4.07;;
74503;SDS011;62988;55.776;37.544;2023-02-11T12:30:47;12.55;;;3.28;;
74503;SDS011;62988;55.776;37.544;2023-02-11T12:43:24;14.15;;;4.05;;
74503;SDS011;62988;55.776;37.544;2023-02-11T12:50:57;13.63;;;3.77;;
74503;SDS011;62988;55.776;37.544;2023-02-11T12:53:29;13.52;;;4.97;;
74503;SDS011;62988;55.776;37.544;2023-02-11T12:55:58;9.32;;;3.50;;
74503;SDS011;62988;55.776;37.544;2023-02-11T12:58:25;8.50;;;3.55;;
74503;SDS011;62988;55.776;37.544;2023-02-11T13:00:55;12.13;;;4.47;;
74503;SDS011;62988;55.776;37.544;2023-02-11T13:03:24;8.63;;;3.33;;
74503;SDS011;62988;55.776;37.544;2023-02-11T13:05:56;12.32;;;3.20;;
74503;SDS011;62988;55.776;37.544;2023-02-11T13:10:55;8.23;;;3.00;;
74503;SDS011;62988;55.776;37.544;2023-02-11T13:13:23;14.05;;;3.25;;
74503;SDS011;62988;55.776;37.544;2023-02-11T13:15:59;14.02;;;5.35;;
74503;SDS011;62988;55.776;37.544;2023-02-11T13:18:42;11.77;;;3.97;;
74503;SDS011;62988;55.776;37.544;2023-02-11T13:29:15;14.20;;;4.03;;
74503;SDS011;62988;55.776;37.544;2023-02-11T13:34:23;13.32;;;4.95;;
74503;SDS011;62988;55.776;37.544;2023-02-11T13:36:55;19.08;;;4.63;;
74503;SDS011;62988;55.776;37.544;2023-02-11T13:39:21;14.07;;;4.72;;
74503;SDS011;62988;55.776;37.544;2023-02-11T13:41:47;19.27;;;4.53;;
74503;SDS011;62988;55.776;37.544;2023-02-11T13:49:23;18.30;;;5.70;;
74503;SDS011;62988;55.776;37.544;2023-02-11T13:51:49;17.85;;;5.80;;
74503;SDS011;62988;55.776;37.544;2023-02-11T13:54:22;15.35;;;5.35;;
74503;SDS011;62988;55.776;37.544;2023-02-11T14:02:01;15.43;;;4.77;;
74503;SDS011;62988;55.776;37.544;2023-02-11T14:10:50;12.15;;;4.55;;
74503;SDS011;62988;55.776;37.544;2023-02-11T14:13:18;10.65;;;3.88;;
74503;SDS011;62988;55.776;37.544;2023-02-11T14:15:46;11.02;;;4.40;;
74503;SDS011;62988;55.776;37.544;2023-02-11T14:21:00;9.13;;;3.92;;
74503;SDS011;62988;55.776;37.544;2023-02-11T14:23:30;14.00;;;4.05;;
74503;SDS011;62988;55.776;37.544;2023-02-11T14:26:03;10.65;;;4.72;;
74503;SDS011;62988;55.776;37.544;2023-02-11T14:28:30;12.90;;;4.35;;
74503;SDS011;62988;55.776;37.544;2023-02-11T14:35:55;13.50;;;5.13;;
74503;SDS011;62988;55.776;37.544;2023-02-11T14:38:44;11.30;;;4.20;;
74503;SDS011;62988;55.776;37.544;2023-02-11T14:43:43;12.90;;;4.87;;
74503;SDS011;62988;55.776;37.544;2023-02-11T14:46:10;16.20;;;4.63;;
74503;SDS011;62988;55.776;37.544;2023-02-11T14:48:36;11.32;;;4.20;;
74503;SDS011;62988;55.776;37.544;2023-02-11T14:51:05;19.15;;;5.68;;
74503;SDS011;62988;55.776;37.544;2023-02-11T14:53:31;12.85;;;4.50;;
74503;SDS011;62988;55.776;37.544;2023-02-11T14:55:57;13.85;;;4.85;;
74503;SDS011;62988;55.776;37.544;2023-02-11T14:58:24;13.40;;;5.07;;
74503;SDS011;62988;55.776;37.544;2023-02-11T15:01:00;20.17;;;5.18;;
74503;SDS011;62988;55.776;37.544;2023-02-11T15:03:39;12.43;;;4.30;;
74503;SDS011;62988;55.776;37.544;2023-02-11T15:06:21;7.85;;;3.25;;
74503;SDS011;62988;55.776;37.544;2023-02-11T15:08:48;9.18;;;3.20;;
74503;SDS011;62988;55.776;37.544;2023-02-11T15:11:14;10.88;;;3.75;;
74503;SDS011;62988;55.776;37.544;2023-02-11T15:13:41;11.35;;;4.53;;
74503;SDS011;62988;55.776;37.544;2023-02-11T15:16:22;10.57;;;4.47;;
74503;SDS011;62988;55.776;37.544;2023-02-11T15:18:53;8.38;;;3.33;;
74503;SDS011;62988;55.776;37.544;2023-02-11T15:21:22;18.90;;;5.00;;
74503;SDS011;62988;55.776;37.544;2023-02-11T15:23:56;17.75;;;5.18;;
74503;SDS011;62988;55.776;37.544;2023-02-11T15:26:21;11.63;;;5.18;;
74503;SDS011;62988;55.776;37.544;2023-02-11T15:28:47;11.95;;;4.45;;
74503;SDS011;62988;55.776;37.544;2023-02-11T15:31:16;15.50;;;4.60;;
74503;SDS011;62988;55.776;37.544;2023-02-11T15:33:42;14.00;;;4.07;;
74503;SDS011;62988;55.776;37.544;2023-02-11T15:36:09;16.15;;;4.97;;
74503;SDS011;62988;55.776;37.544;2023-02-11T15:38:35;11.23;;;4.85;;
74503;SDS011;62988;55.776;37.544;2023-02-11T15:41:01;11.47;;;4.03;;
74503;SDS011;62988;55.776;37.544;2023-02-11T15:43:40;11.05;;;3.92;;
74503;SDS011;62988;55.776;37.544;2023-02-11T15:46:06;15.40;;;5.82;;
74503;SDS011;62988;55.776;37.544;2023-02-11T15:48:34;15.68;;;5.53;;
74503;SDS011;62988;55.776;37.544;2023-02-11T15:51:02;16.60;;;4.75;;
74503;SDS011;62988;55.776;37.544;2023-02-11T15:53:35;15.82;;;5.13;;
74503;SDS011;62988;55.776;37.544;2023-02-11T15:56:16;9.50;;;3.33;;
74503;SDS011;62988;55.776;37.544;2023-02-11T15:58:44;13.85;;;4.40;;
74503;SDS011;62988;55.776;37.544;2023-02-11T16:01:11;16.30;;;3.75;;
74503;SDS011;62988;55.776;37.544;2023-02-11T16:03:37;15.18;;;4.55;;
74503;SDS011;62988;55.776;37.544;2023-02-11T16:08:40;15.57;;;4.70;;
74503;SDS011;62988;55.776;37.544;2023-02-11T16:11:29;13.30;;;4.32;;
74503;SDS011;62988;55.776;37.544;2023-02-11T16:13:54;13.10;;;4.90;;
74503;SDS011;62988;55.776;37.544;2023-02-11T16:16:20;15.35;;;4.80;;
74503;SDS011;62988;55.776;37.544;2023-02-11T16:18:54;15.77;;;4.68;;
74503;SDS011;62988;55.776;37.544;2023-02-11T16:21:22;11.45;;;2.95;;
74503;SDS011;62988;55.776;37.544;2023-02-11T16:23:49;14.35;;;4.18;;
74503;SDS011;62988;55.776;37.544;2023-02-11T16:26:31;18.60;;;5.78;;
74503;SDS011;62988;55.776;37.544;2023-02-11T16:29:05;9.88;;;4.18;;
74503;SDS011;62988;55.776;37.544;2023-02-11T16:31:32;14.02;;;4.63;;
74503;SDS011;62988;55.776;37.544;2023-02-11T16:33:57;17.13;;;5.20;;
74503;SDS011;62988;55.776;37.544;2023-02-11T16:36:24;13.00;;;5.47;;
74503;SDS011;62988;55.776;37.544;2023-02-11T16:38:49;9.57;;;4.55;;
74503;SDS011;62988;55.776;37.544;2023-02-11T16:41:14;12.37;;;4.57;;
74503;SDS011;62988;55.776;37.544;2023-02-11T16:43:40;16.27;;;4.37;;
74503;SDS011;62988;55.776;37.544;2023-02-11T16:46:05;15.70;;;5.20;;
74503;SDS011;62988;55.776;37.544;2023-02-11T16:48:30;11.35;;;4.70;;
74503;SDS011;62988;55.776;37.544;2023-02-11T16:50:56;11.80;;;4.25;;
74503;SDS011;62988;55.776;37.544;2023-02-11T16:53:22;15.15;;;4.93;;
74503;SDS011;62988;55.776;37.544;2023-02-11T16:55:48;16.30;;;4.75;;